Private Wetterstation Sandau
Wetterdaten: Woche 11.02.13 - 17.02.13 (KW7)
Datum Zeit Temp. A. Feuchte A. Luftdruck Regen Wind Richtung Taupunkt Windchill
11.02.2013 00:00 -5,7 C 90 % 1014,7 hPa 0,0 l/m 8,2 km/h (2 Bft) O -7,0 C -9,3 C
11.02.2013 01:00 -5,6 C 90 % 1014,5 hPa 0,0 l/m 8,1 km/h (2 Bft) O-SO -7,0 C -9,2 C
11.02.2013 02:00 -6,0 C 90 % 1014,3 hPa 0,0 l/m 8,2 km/h (2 Bft) O -7,3 C -9,6 C
11.02.2013 03:00 -6,2 C 90 % 1013,8 hPa 0,0 l/m 8,1 km/h (2 Bft) O -7,6 C -9,6 C
11.02.2013 04:00 -6,4 C 90 % 1013,6 hPa 0,0 l/m 6,8 km/h (2 Bft) O-SO -7,7 C -9,6 C
11.02.2013 05:00 -6,4 C 90 % 1013,1 hPa 0,0 l/m 4,1 km/h (1 Bft) O-SO -7,7 C -7,8 C
11.02.2013 06:00 -6,2 C 89 % 1012,8 hPa 0,0 l/m 4,1 km/h (1 Bft) O-SO -7,7 C -7,5 C
11.02.2013 07:00 -5,9 C 90 % 1012,9 hPa 0,0 l/m 4,4 km/h (1 Bft) O-SO -7,3 C -7,1 C
11.02.2013 08:00 -4,9 C 90 % 1012,9 hPa 0,0 l/m 6,1 km/h (2 Bft) O-SO -6,3 C -7,1 C
11.02.2013 09:00 -3,6 C 88 % 1012,7 hPa 0,0 l/m 6,9 km/h (2 Bft) O-SO -5,3 C -6,4 C
11.02.2013 10:00 -2,2 C 84 % 1012,6 hPa 0,5 l/m 9,6 km/h (2 Bft) O-SO -4,5 C -5,5 C
11.02.2013 11:00 -1,1 C 83 % 1012,3 hPa 0,0 l/m 7,7 km/h (2 Bft) SO -3,7 C -3,6 C
11.02.2013 12:00 -0,3 C 80 % 1012,1 hPa 0,5 l/m 9,7 km/h (2 Bft) O -3,2 C -3,0 C
11.02.2013 13:00 0,4 C 78 % 1011,9 hPa 0,0 l/m 8,0 km/h (2 Bft) O-NO -3,1 C -1,8 C
11.02.2013 14:00 0,3 C 77 % 1012,0 hPa 0,0 l/m 11,7 km/h (2 Bft) SO -3,3 C -3,2 C
11.02.2013 15:00 0,1 C 77 % 1012,1 hPa 0,0 l/m 6,8 km/h (2 Bft) O-SO -3,4 C -1,8 C
11.02.2013 16:00 -0,1 C 79 % 1012,1 hPa 0,0 l/m 8,1 km/h (2 Bft) O-SO -3,4 C -2,7 C
11.02.2013 17:00 -0,4 C 79 % 1012,2 hPa 0,0 l/m 8,0 km/h (2 Bft) NO -3,6 C -3,0 C
11.02.2013 18:00 -0,6 C 79 % 1012,5 hPa 0,0 l/m 10,3 km/h (2 Bft) O-SO -3,8 C -3,7 C
11.02.2013 19:00 -0,6 C 80 % 1012,7 hPa 0,0 l/m 6,9 km/h (2 Bft) O -3,7 C -2,7 C
11.02.2013 20:00 -0,7 C 81 % 1012,7 hPa 0,0 l/m 7,9 km/h (2 Bft) O -3,5 C -3,2 C
11.02.2013 21:00 -0,7 C 81 % 1012,9 hPa 0,0 l/m 6,2 km/h (2 Bft) O-NO -3,5 C -2,6 C
11.02.2013 22:00 -0,7 C 82 % 1013,2 hPa 0,0 l/m 4,8 km/h (1 Bft) NO -3,4 C -2,2 C
11.02.2013 23:00 -1,4 C 84 % 1013,3 hPa 0,0 l/m 7,3 km/h (2 Bft) O-NO -3,8 C -3,7 C
12.02.2013 00:00 -2,1 C 86 % 1013,6 hPa 0,0 l/m 5,4 km/h (1 Bft) O-NO -4,1 C -3,5 C
12.02.2013 01:00 -1,9 C 87 % 1013,7 hPa 0,0 l/m 4,2 km/h (1 Bft) NO -3,7 C -2,9 C
12.02.2013 02:00 -1,6 C 87 % 1013,6 hPa 0,0 l/m 5,0 km/h (1 Bft) O-NO -3,5 C -3,1 C
12.02.2013 03:00 -1,5 C 87 % 1013,6 hPa 0,0 l/m 6,2 km/h (2 Bft) O-NO -3,4 C -3,6 C
12.02.2013 04:00 -1,5 C 87 % 1013,7 hPa 0,0 l/m 4,3 km/h (1 Bft) NO -3,4 C -2,4 C
12.02.2013 05:00 -1,6 C 88 % 1013,7 hPa 0,0 l/m 5,2 km/h (1 Bft) O-NO -3,3 C -3,0 C
12.02.2013 06:00 -1,6 C 88 % 1013,9 hPa 0,0 l/m 5,8 km/h (2 Bft) NO -3,3 C -3,4 C
12.02.2013 07:00 -1,6 C 88 % 1014,1 hPa 0,0 l/m 5,3 km/h (1 Bft) O-NO -3,3 C -3,2 C
12.02.2013 08:00 -1,4 C 88 % 1014,5 hPa 0,0 l/m 4,7 km/h (1 Bft) NO -3,0 C -2,4 C
12.02.2013 09:00 -0,8 C 86 % 1015,0 hPa 0,0 l/m 2,6 km/h (1 Bft) NO -2,8 C -1,1 C
12.02.2013 10:00 0,1 C 81 % 1015,2 hPa 0,0 l/m 4,0 km/h (1 Bft) O-NO -2,8 C -0,5 C
12.02.2013 11:00 0,3 C 78 % 1015,2 hPa 0,0 l/m 4,9 km/h (1 Bft) NO -3,1 C -0,8 C
12.02.2013 12:00 0,9 C 75 % 1015,3 hPa 0,0 l/m 6,1 km/h (2 Bft) NO -3,1 C -0,7 C
12.02.2013 13:00 1,6 C 68 % 1015,1 hPa 0,0 l/m 5,6 km/h (1 Bft) O-NO -3,6 C 0,0 C
12.02.2013 14:00 1,7 C 65 % 1014,9 hPa 0,0 l/m 7,7 km/h (2 Bft) O-NO -4,2 C -0,3 C
12.02.2013 15:00 1,3 C 69 % 1015,0 hPa 0,0 l/m 7,6 km/h (2 Bft) N-NO -3,7 C -0,8 C
12.02.2013 16:00 0,7 C 72 % 1015,4 hPa 0,0 l/m 3,6 km/h (1 Bft) N-NO -3,7 C 0,0 C
12.02.2013 17:00 -0,7 C 75 % 1016,0 hPa 0,0 l/m 1,8 km/h (1 Bft) N-NO -4,5 C -0,8 C
12.02.2013 18:00 -1,1 C 78 % 1016,7 hPa 0,0 l/m 2,9 km/h (1 Bft) N-NO -4,4 C -1,3 C
12.02.2013 19:00 -1,1 C 80 % 1017,0 hPa 0,0 l/m 2,7 km/h (1 Bft) N-NO -4,1 C -1,1 C
12.02.2013 20:00 -1,3 C 81 % 1017,3 hPa 0,0 l/m 2,9 km/h (1 Bft) NO -4,1 C -1,6 C
12.02.2013 21:00 -1,7 C 83 % 1017,8 hPa 0,0 l/m 3,0 km/h (1 Bft) NO -4,2 C -1,9 C
12.02.2013 22:00 -1,9 C 84 % 1018,1 hPa 0,0 l/m 1,9 km/h (1 Bft) O-NO -4,2 C -2,2 C
12.02.2013 23:00 -2,4 C 85 % 1018,5 hPa 0,0 l/m 2,9 km/h (1 Bft) O-NO -4,5 C -2,6 C
13.02.2013 00:00 -2,8 C 86 % 1019,0 hPa 0,0 l/m 2,4 km/h (1 Bft) O-NO -4,8 C -3,0 C
13.02.2013 01:00 -3,4 C 86 % 1019,6 hPa 0,0 l/m 0,1 km/h (0 Bft) N-NO -5,4 C -3,4 C
13.02.2013 02:00 -3,5 C 88 % 1020,0 hPa 0,0 l/m 1,7 km/h (1 Bft) N-NO -5,1 C -3,5 C
13.02.2013 03:00 -3,6 C 89 % 1020,3 hPa 0,0 l/m 1,1 km/h (0 Bft) N -5,2 C -3,6 C
13.02.2013 04:00 -3,9 C 89 % 1020,9 hPa 0,0 l/m 1,1 km/h (0 Bft) N -5,4 C -3,9 C
13.02.2013 05:00 -4,2 C 91 % 1021,2 hPa 0,0 l/m 3,5 km/h (1 Bft) N -5,5 C -4,6 C
13.02.2013 06:00 -5,1 C 90 % 1021,9 hPa 0,0 l/m 2,5 km/h (1 Bft) N-NO -6,4 C -5,6 C
13.02.2013 07:00 -5,7 C 91 % 1022,8 hPa 0,0 l/m 2,5 km/h (1 Bft) N-NO -7,0 C -6,2 C
13.02.2013 08:00 -5,1 C 92 % 1023,6 hPa 0,0 l/m 2,2 km/h (1 Bft) N-NO -6,3 C -5,4 C
13.02.2013 09:00 -4,5 C 92 % 1024,1 hPa 0,0 l/m 5,2 km/h (1 Bft) N-NO -5,6 C -6,4 C
13.02.2013 10:00 -3,3 C 93 % 1024,9 hPa 0,0 l/m 2,8 km/h (1 Bft) N-NO -4,3 C -3,6 C
13.02.2013 11:00 -1,9 C 92 % 1025,4 hPa 0,0 l/m 1,4 km/h (1 Bft) N-NO -3,0 C -1,9 C
13.02.2013 12:00 -0,6 C 90 % 1025,6 hPa 0,0 l/m 1,3 km/h (1 Bft) N-NO -2,0 C -0,7 C
13.02.2013 13:00 0,4 C 88 % 1025,9 hPa 0,0 l/m 2,0 km/h (1 Bft) W-NW -1,4 C 0,2 C
13.02.2013 14:00 1,3 C 84 % 1026,2 hPa 0,0 l/m 3,9 km/h (1 Bft) W-NW -1,1 C 0,5 C
13.02.2013 15:00 1,0 C 83 % 1026,7 hPa 0,0 l/m 2,3 km/h (1 Bft) W-NW -1,5 C 0,8 C
13.02.2013 16:00 0,1 C 82 % 1027,4 hPa 0,0 l/m 5,3 km/h (1 Bft) N-NO -2,7 C -1,2 C
13.02.2013 17:00 -0,1 C 82 % 1027,7 hPa 0,0 l/m 2,8 km/h (1 Bft) N-NO -2,8 C -0,4 C
13.02.2013 18:00 -0,3 C 81 % 1028,0 hPa 0,0 l/m 4,3 km/h (1 Bft) N-NO -3,2 C -1,2 C
13.02.2013 19:00 -0,6 C 81 % 1028,0 hPa 0,0 l/m 1,9 km/h (1 Bft) N-NO -3,4 C -0,6 C
13.02.2013 20:00 -0,7 C 82 % 1028,3 hPa 0,0 l/m 0,2 km/h (0 Bft) N-NO -3,3 C -0,7 C
13.02.2013 21:00 -0,7 C 83 % 1028,5 hPa 0,0 l/m 0,2 km/h (0 Bft) W-SW -3,2 C -0,7 C
13.02.2013 22:00 -1,1 C 84 % 1028,7 hPa 0,0 l/m 0,3 km/h (0 Bft) W-SW -3,4 C -1,1 C
13.02.2013 23:00 -1,2 C 86 % 1028,8 hPa 0,0 l/m 0,9 km/h (0 Bft) NW -3,3 C -1,2 C
14.02.2013 00:00 -1,2 C 87 % 1029,0 hPa 0,0 l/m 0,7 km/h (0 Bft) N-NO -3,2 C -1,2 C
14.02.2013 01:00 -1,3 C 87 % 1029,2 hPa 0,0 l/m 1,7 km/h (1 Bft) W-SW -3,1 C -1,5 C
14.02.2013 02:00 -1,8 C 87 % 1029,1 hPa 0,0 l/m 1,1 km/h (1 Bft) W-NW -3,6 C -1,8 C
14.02.2013 03:00 -1,8 C 88 % 1028,6 hPa 0,0 l/m 1,0 km/h (0 Bft) W-SW -3,6 C -1,8 C
14.02.2013 04:00 -2,1 C 88 % 1028,0 hPa 0,0 l/m 1,7 km/h (1 Bft) S-SO -3,8 C -2,2 C
14.02.2013 05:00 -2,2 C 88 % 1027,9 hPa 0,0 l/m 2,8 km/h (1 Bft) W-SW -3,8 C -2,6 C
14.02.2013 06:00 -2,3 C 89 % 1027,5 hPa 0,0 l/m 3,5 km/h (1 Bft) S-SW -3,9 C -3,1 C
14.02.2013 07:00 -2,6 C 88 % 1027,3 hPa 0,0 l/m 4,3 km/h (1 Bft) S-SW -4,2 C -3,2 C
14.02.2013 08:00 -2,7 C 89 % 1027,1 hPa 0,0 l/m 3,1 km/h (1 Bft) S -4,3 C -3,1 C
14.02.2013 09:00 -2,2 C 89 % 1026,8 hPa 0,0 l/m 3,9 km/h (1 Bft) S -3,8 C -3,2 C
14.02.2013 10:00 -1,6 C 89 % 1026,4 hPa 0,0 l/m 3,2 km/h (1 Bft) S-SO -3,2 C -1,9 C
14.02.2013 11:00 -0,6 C 87 % 1026,0 hPa 0,0 l/m 1,9 km/h (1 Bft) SO -2,6 C -0,6 C
14.02.2013 12:00 0,4 C 83 % 1025,2 hPa 0,0 l/m 2,0 km/h (1 Bft) S-SO -2,1 C 0,3 C
14.02.2013 13:00 0,9 C 80 % 1024,3 hPa 0,0 l/m 4,3 km/h (1 Bft) O-SO -2,1 C -0,1 C
14.02.2013 14:00 0,7 C 79 % 1023,3 hPa 0,0 l/m 5,5 km/h (1 Bft) O-SO -2,5 C -0,6 C
14.02.2013 15:00 0,5 C 79 % 1022,5 hPa 0,0 l/m 6,3 km/h (2 Bft) S-SO -2,6 C -1,1 C
14.02.2013 16:00 0,1 C 81 % 1021,9 hPa 0,0 l/m 6,1 km/h (2 Bft) SO -2,8 C -1,6 C
14.02.2013 17:00 -0,0 C 83 % 1021,6 hPa 0,0 l/m 7,2 km/h (2 Bft) SO -2,6 C -2,2 C
14.02.2013 18:00 -0,3 C 82 % 1021,2 hPa 0,0 l/m 7,6 km/h (2 Bft) S-SO -3,0 C -2,5 C
14.02.2013 19:00 -0,7 C 83 % 1020,7 hPa 0,0 l/m 9,9 km/h (2 Bft) SO -3,1 C -3,9 C
14.02.2013 20:00 -0,6 C 84 % 1020,4 hPa 0,0 l/m 11,4 km/h (2 Bft) S-SO -2,9 C -4,2 C
14.02.2013 21:00 -0,7 C 85 % 1020,3 hPa 0,0 l/m 8,4 km/h (2 Bft) SO -3,0 C -3,5 C
14.02.2013 22:00 -0,8 C 86 % 1019,9 hPa 0,0 l/m 9,5 km/h (2 Bft) SO -2,8 C -3,8 C
14.02.2013 23:00 -0,8 C 87 % 1019,5 hPa 0,0 l/m 8,9 km/h (2 Bft) SO -2,7 C -3,8 C
15.02.2013 00:00 -0,8 C 87 % 1019,2 hPa 0,0 l/m 11,0 km/h (2 Bft) SO -2,6 C -4,3 C
15.02.2013 01:00 -1,1 C 88 % 1019,0 hPa 0,0 l/m 7,9 km/h (2 Bft) O-SO -2,8 C -3,6 C
15.02.2013 02:00 -1,7 C 89 % 1018,8 hPa 0,0 l/m 5,5 km/h (1 Bft) SO -3,3 C -3,4 C
15.02.2013 03:00 -1,5 C 90 % 1018,6 hPa 0,0 l/m 10,6 km/h (2 Bft) SO -3,0 C -5,0 C
15.02.2013 04:00 -1,5 C 90 % 1018,5 hPa 0,0 l/m 10,7 km/h (2 Bft) SO -2,9 C -5,2 C
15.02.2013 05:00 -1,4 C 91 % 1018,6 hPa 0,0 l/m 6,4 km/h (2 Bft) SO -2,7 C -3,3 C
15.02.2013 06:00 -1,1 C 90 % 1018,7 hPa 0,0 l/m 5,9 km/h (2 Bft) SO -2,5 C -2,9 C
15.02.2013 07:00 -0,9 C 90 % 1018,9 hPa 0,0 l/m 5,6 km/h (1 Bft) SO -2,3 C -2,5 C
15.02.2013 08:00 -0,6 C 90 % 1019,2 hPa 0,0 l/m 3,4 km/h (1 Bft) SO -2,0 C -1,3 C
15.02.2013 09:00 -0,0 C 89 % 1019,6 hPa 0,0 l/m 4,3 km/h (1 Bft) O -1,6 C -1,0 C
15.02.2013 10:00 0,4 C 88 % 1019,8 hPa 0,0 l/m 6,2 km/h (2 Bft) O-SO -1,3 C -1,3 C
15.02.2013 11:00 0,7 C 88 % 1020,0 hPa 0,0 l/m 3,7 km/h (1 Bft) SO -1,1 C 0,1 C
15.02.2013 12:00 1,2 C 87 % 1020,1 hPa 0,0 l/m 4,4 km/h (1 Bft) SO -0,8 C 0,6 C
15.02.2013 13:00 1,4 C 85 % 1019,8 hPa 0,0 l/m 4,8 km/h (1 Bft) O-SO -0,8 C 0,4 C
15.02.2013 14:00 1,6 C 85 % 1019,9 hPa 0,0 l/m 3,6 km/h (1 Bft) SO -0,7 C 0,7 C
15.02.2013 15:00 1,4 C 85 % 1020,1 hPa 0,0 l/m 3,6 km/h (1 Bft) SO -0,8 C 1,1 C
15.02.2013 16:00 1,3 C 86 % 1020,3 hPa 0,0 l/m 1,6 km/h (1 Bft) O-SO -0,8 C 1,3 C
15.02.2013 17:00 1,0 C 87 % 1020,7 hPa 0,0 l/m 2,6 km/h (1 Bft) O -0,9 C 0,6 C
15.02.2013 18:00 0,8 C 87 % 1021,2 hPa 0,0 l/m 1,3 km/h (1 Bft) SO -1,0 C 0,8 C
15.02.2013 19:00 0,3 C 88 % 1021,5 hPa 0,0 l/m 0,6 km/h (0 Bft) O-SO -1,4 C 0,3 C
15.02.2013 20:00 -0,2 C 89 % 1021,8 hPa 0,0 l/m 0,5 km/h (0 Bft) O-SO -1,9 C -0,2 C
15.02.2013 21:00 -0,2 C 90 % 1022,1 hPa 0,0 l/m 1,6 km/h (1 Bft) SO -1,7 C -0,2 C
15.02.2013 22:00 -0,4 C 90 % 1022,2 hPa 0,0 l/m 0,6 km/h (0 Bft) SO -1,8 C -0,4 C
15.02.2013 23:00 -0,5 C 90 % 1022,4 hPa 0,0 l/m 0,1 km/h (0 Bft) O-SO -1,9 C -0,5 C
16.02.2013 00:00 -0,1 C 90 % 1022,7 hPa 0,0 l/m 1,1 km/h (1 Bft) SO -1,6 C -0,1 C
16.02.2013 01:00 -0,0 C 90 % 1023,0 hPa 0,0 l/m 0,8 km/h (0 Bft) SO -1,5 C -0,0 C
16.02.2013 02:00 0,1 C 90 % 1023,1 hPa 0,0 l/m 0,9 km/h (0 Bft) SO -1,4 C 0,1 C
16.02.2013 03:00 0,1 C 89 % 1022,9 hPa 0,0 l/m 1,0 km/h (0 Bft) SO -1,5 C 0,1 C
16.02.2013 04:00 -0,1 C 89 % 1022,9 hPa 0,0 l/m 0,9 km/h (0 Bft) SO -1,6 C -0,1 C
16.02.2013 05:00 0,1 C 90 % 1023,0 hPa 0,0 l/m 3,3 km/h (1 Bft) SO -1,4 C -0,3 C
16.02.2013 06:00 0,1 C 90 % 1023,0 hPa 0,0 l/m 3,0 km/h (1 Bft) O-SO -1,3 C -0,1 C
16.02.2013 07:00 0,1 C 90 % 1023,5 hPa 0,0 l/m 0,2 km/h (0 Bft) S-SO -1,3 C 0,1 C
16.02.2013 08:00 0,4 C 90 % 1023,9 hPa 0,0 l/m 2,0 km/h (1 Bft) SO -1,2 C 0,1 C
16.02.2013 09:00 1,0 C 89 % 1024,1 hPa 0,0 l/m 3,1 km/h (1 Bft) SO -0,6 C 0,8 C
16.02.2013 10:00 1,4 C 87 % 1024,5 hPa 0,0 l/m 2,7 km/h (1 Bft) O-SO -0,6 C 1,0 C
16.02.2013 11:00 1,8 C 86 % 1024,7 hPa 0,0 l/m 2,0 km/h (1 Bft) O-SO -0,3 C 1,5 C
16.02.2013 12:00 1,9 C 86 % 1024,7 hPa 0,0 l/m 4,1 km/h (1 Bft) O-SO -0,2 C 1,2 C
16.02.2013 13:00 2,0 C 86 % 1024,6 hPa 0,0 l/m 2,1 km/h (1 Bft) SO -0,1 C 2,0 C
16.02.2013 14:00 2,2 C 85 % 1024,4 hPa 0,0 l/m 1,9 km/h (1 Bft) O-SO -0,0 C 2,1 C
16.02.2013 15:00 2,2 C 85 % 1024,6 hPa 0,0 l/m 1,9 km/h (1 Bft) SO -0,1 C 2,2 C
16.02.2013 16:00 2,0 C 85 % 1024,9 hPa 0,0 l/m 0,8 km/h (0 Bft) SO -0,2 C 2,0 C
16.02.2013 17:00 1,8 C 86 % 1025,2 hPa 0,0 l/m 0,2 km/h (0 Bft) O-SO -0,4 C 1,8 C
16.02.2013 18:00 1,4 C 87 % 1025,5 hPa 0,0 l/m 2,2 km/h (1 Bft) O-NO -0,5 C 1,1 C
16.02.2013 19:00 1,3 C 90 % 1025,6 hPa 0,0 l/m 1,6 km/h (1 Bft) O -0,2 C 1,2 C
16.02.2013 20:00 1,2 C 90 % 1025,9 hPa 0,0 l/m 0,8 km/h (0 Bft) O -0,2 C 1,2 C
16.02.2013 21:00 1,2 C 90 % 1026,2 hPa 0,0 l/m 1,7 km/h (1 Bft) O-SO -0,3 C 1,1 C
16.02.2013 22:00 1,1 C 90 % 1026,4 hPa 0,0 l/m 2,5 km/h (1 Bft) O-SO -0,4 C 1,1 C
16.02.2013 23:00 0,9 C 90 % 1026,6 hPa 0,0 l/m 1,5 km/h (1 Bft) O-SO -0,5 C 0,9 C
17.02.2013 00:00 0,8 C 91 % 1026,8 hPa 0,0 l/m 1,9 km/h (1 Bft) O -0,6 C 0,8 C
17.02.2013 01:00 0,6 C 91 % 1026,8 hPa 0,0 l/m 1,9 km/h (1 Bft) O-SO -0,7 C 0,5 C
17.02.2013 02:00 0,6 C 91 % 1026,8 hPa 0,0 l/m 1,3 km/h (1 Bft) O-NO -0,7 C 0,6 C
17.02.2013 03:00 0,5 C 91 % 1026,7 hPa 0,0 l/m 1,9 km/h (1 Bft) O-SO -0,8 C 0,3 C
17.02.2013 04:00 0,5 C 91 % 1026,6 hPa 0,0 l/m 0,7 km/h (0 Bft) O-SO -0,8 C 0,5 C
17.02.2013 05:00 0,7 C 92 % 1026,6 hPa 0,0 l/m 0,9 km/h (0 Bft) O-NO -0,5 C 0,7 C
17.02.2013 06:00 0,7 C 92 % 1026,8 hPa 0,0 l/m 1,3 km/h (1 Bft) NO -0,4 C 0,7 C
17.02.2013 07:00 0,7 C 92 % 1027,0 hPa 0,0 l/m 2,0 km/h (1 Bft) NO -0,4 C 0,6 C
17.02.2013 08:00 0,8 C 93 % 1027,2 hPa 0,0 l/m 0,8 km/h (0 Bft) NO -0,2 C 0,8 C
17.02.2013 09:00 0,9 C 93 % 1027,2 hPa 0,0 l/m 2,2 km/h (1 Bft) O-SO -0,1 C 0,7 C
17.02.2013 10:00 0,9 C 93 % 1027,2 hPa 0,0 l/m 2,2 km/h (1 Bft) O-SO -0,1 C 0,6 C
17.02.2013 11:00 1,3 C 93 % 1027,3 hPa 0,0 l/m 2,3 km/h (1 Bft) S-SO 0,3 C 1,3 C
17.02.2013 12:00 1,3 C 93 % 1027,1 hPa 0,0 l/m 1,7 km/h (1 Bft) SO 0,3 C 1,1 C
17.02.2013 13:00 1,6 C 92 % 1026,8 hPa 0,0 l/m 1,5 km/h (1 Bft) O-SO 0,5 C 1,6 C
17.02.2013 14:00 1,5 C 92 % 1026,5 hPa 0,0 l/m 0,9 km/h (0 Bft) O-SO 0,4 C 1,5 C
17.02.2013 15:00 1,4 C 93 % 1026,2 hPa 0,0 l/m 1,6 km/h (1 Bft) O-SO 0,4 C 1,4 C
17.02.2013 16:00 1,4 C 93 % 1026,1 hPa 0,0 l/m 1,3 km/h (1 Bft) O 0,4 C 1,4 C
17.02.2013 17:00 1,3 C 93 % 1026,0 hPa 0,0 l/m 0,5 km/h (0 Bft) O-SO 0,3 C 1,3 C
17.02.2013 18:00 1,2 C 93 % 1026,2 hPa 0,0 l/m 0,4 km/h (0 Bft) O-SO 0,1 C 1,2 C
17.02.2013 19:00 1,1 C 93 % 1026,2 hPa 0,0 l/m 1,2 km/h (1 Bft) O-SO 0,0 C 1,1 C
17.02.2013 20:00 0,9 C 92 % 1026,1 hPa 0,0 l/m 0,8 km/h (0 Bft) O-SO -0,2 C 0,9 C
17.02.2013 21:00 0,9 C 92 % 1026,0 hPa 0,0 l/m 1,1 km/h (1 Bft) O-SO -0,2 C 0,9 C
17.02.2013 22:00 0,8 C 92 % 1025,7 hPa 0,0 l/m 2,1 km/h (1 Bft) O-SO -0,3 C 0,8 C
17.02.2013 23:00 0,7 C 92 % 1025,7 hPa 0,0 l/m 2,4 km/h (1 Bft) O-SO -0,4 C 0,3 C
Min-Datum _ 11.02.13 12.02.13 11.02.13 - 11.02.13 - 11.02.13 11.02.13
_ Min-Zeit 04:16 14:11 13:26 - 05:11 - 04:16 00:06
Minimum _ -6,4 C 63 % 1011,8 hPa - 0,0 km/h (0 Bft) - -7,8 C -11,9 C
Max-Datum _ 16.02.13 13.02.13 14.02.13 11.02.13 14.02.13 - 17.02.13 16.02.13
_ Max-Zeit 14:21 09:51 01:46 10:51 20:41 - 13:01 14:21
Maximum _ 2,3 C 93 % 1029,3 hPa 0,5 l/m 24,5 km/h
S-SO (4 Bft)
- 0,6 C 2,3 C
Durchschnitt _ -0,7 C 87 % 1021,2 hPa #1,0 l/m 3,8 km/h (1 Bft) SO -2,6 C -1,6 C
(c) by David Heller